Vingaren — OZ2131 — position and weather

sailwx.info

Track history (hours):
 
Tides and Currents Weather Stations Pressure Air Temp Water Temp Dewpoint Dewpoint Depression Visibility Wind Speed Wind Dir Waves Ship Positions

Vingaren

Last reported at 2014-Nov-01 04:30 UTC. Time now 2014-Nov-01 11:48 UTC.
Position N 55°36' E 015°22'.

Length 89 m; draft 6.4 m.

Type: Cargo ship. MMSI: 231844000.

Date/timePositionNaut miles runAvg speedWind from/ knotsBaromVisibWave heightAir tempDewpointWater temp
2014-Nov-01 04:30N 55°36' E 015°22'7 7.7
2014-Nov-01 03:33N 55°33' E 015°11'8 7.5
2014-Nov-01 02:31N 55°29' E 014°59'7 7.3
2014-Nov-01 01:33N 55°26' E 014°48'7 7.2
2014-Nov-01 00:33N 55°21' E 014°38'8 7.7
2014-Oct-31 23:33N 55°15' E 014°30'6 6.2
2014-Oct-31 22:33N 55°10' E 014°34'6 5.4
2014-Oct-31 21:31N 55°06' E 014°41'0 0.0
2014-Oct-31 20:31N 55°06' E 014°41'0 0.0
2014-Oct-31 19:31N 55°06' E 014°41'0 0.0
2014-Oct-31 18:31N 55°06' E 014°41'0 0.0
2014-Oct-31 17:31N 55°06' E 014°41'0 0.0
2014-Oct-31 16:31N 55°06' E 014°41'0 0.0
2014-Oct-31 15:31N 55°06' E 014°41'0 0.0
2014-Oct-31 14:31N 55°06' E 014°41'0 0.0
2014-Oct-31 13:31N 55°06' E 014°41'0 0.0
2014-Oct-31 12:31N 55°06' E 014°41'0 0.0
2014-Oct-31 11:31N 55°06' E 014°41'3 3.1
2014-Oct-31 10:33N 55°04' E 014°37'9 9.2
2014-Oct-31 09:34N 54°58' E 014°50'1010.2
2014-Oct-31 08:33N 54°57' E 015°07'1110.3
2014-Oct-31 07:32N 54°55' E 015°26'9310.2
2014-Oct-30 22:27N 54°56' E 018°07'9 9.9
2014-Oct-30 21:34N 54°54' E 018°22'10 9.9
2014-Oct-30 20:33N 54°51' E 018°38'10 9.9
2014-Oct-30 19:34N 54°48' E 018°54'8 8.2
2014-Oct-30 18:33N 54°40' E 018°57'1010.5
2014-Oct-30 17:34N 54°31' E 018°47'8 7.9
2014-Oct-30 16:34N 54°24' E 018°40'1 1.1
2014-Oct-30 15:32N 54°23' E 018°40'0 0.0
2014-Oct-30 14:32N 54°23' E 018°40'0 0.0
2014-Oct-30 13:32N 54°23' E 018°40'0 0.0
2014-Oct-30 12:32N 54°23' E 018°40'0 0.0
2014-Oct-30 11:32N 54°23' E 018°40'0 0.0
2014-Oct-30 10:32N 54°23' E 018°40'0 0.0
2014-Oct-30 09:32N 54°23' E 018°40'0 0.0
2014-Oct-30 08:31N 54°23' E 018°40'0 0.0
2014-Oct-30 07:31N 54°23' E 018°40'0 0.0
2014-Oct-30 06:31N 54°23' E 018°40'0 0.0
2014-Oct-30 05:31N 54°23' E 018°40'0 0.0
2014-Oct-30 04:31N 54°23' E 018°40'0 0.0
2014-Oct-30 03:31N 54°23' E 018°40'0 0.0
2014-Oct-30 02:31N 54°23' E 018°40'0 0.0
2014-Oct-30 01:31N 54°23' E 018°40'0 0.0
2014-Oct-30 00:31N 54°23' E 018°40'0 0.0
2014-Oct-29 23:31N 54°23' E 018°40'0 0.0
2014-Oct-29 22:31N 54°23' E 018°40'0 0.0
2014-Oct-29 21:31N 54°23' E 018°40'0 0.0
2014-Oct-29 20:31N 54°23' E 018°40'0 0.0
2014-Oct-29 19:31N 54°23' E 018°40'0 0.0
2014-Oct-29 18:31N 54°23' E 018°40'0 0.0
2014-Oct-29 17:31N 54°23' E 018°40'0 0.0
2014-Oct-29 16:28N 54°23' E 018°40'0 0.0
2014-Oct-29 15:31N 54°23' E 018°40'0 0.0
2014-Oct-29 14:31N 54°23' E 018°40'0 0.0
2014-Oct-29 13:31N 54°23' E 018°40'0 0.0
2014-Oct-29 12:31N 54°23' E 018°40'2 1.7
2014-Oct-29 11:33N 54°25' E 018°40'7 7.1
2014-Oct-29 10:33N 54°31' E 018°46'9 8.8
2014-Oct-29 09:33N 54°38' E 018°55'8 8.2
2014-Oct-29 08:33N 54°46' E 018°59'9 8.7
2014-Oct-29 07:33N 54°51' E 018°47'9 8.8
2014-Oct-29 06:33N 54°56' E 018°35'9 8.7
2014-Oct-29 05:33N 54°57' E 018°20'9 8.6
2014-Oct-29 04:33N 54°56' E 018°05'9 8.6
2014-Oct-29 03:33N 54°56' E 017°50'10 8.7
2014-Oct-29 02:27N 54°54' E 017°34'8 8.7
2014-Oct-29 01:28N 54°53' E 017°19'8 8.6
2014-Oct-29 00:33N 54°51' E 017°06'10 8.5
2014-Oct-28 23:24N 54°49' E 016°49'16 8.8
2014-Oct-28 21:33N 54°46' E 016°22'69 9.2
2014-Oct-28 14:03N 54°36' E 014°24'5 9.0
2014-Oct-28 13:33N 54°37' E 014°16'9 9.2
2014-Oct-28 12:33N 54°40' E 014°01'9 9.0
2014-Oct-28 11:31N 54°43' E 013°46'9 8.8
2014-Oct-28 10:33N 54°45' E 013°32'9 9.0
2014-Oct-28 09:33N 54°45' E 013°16'9 9.1
2014-Oct-28 08:33N 54°45' E 013°01'9 9.0
2014-Oct-28 07:33N 54°45' E 012°45'9 8.9
2014-Oct-28 06:32N 54°40' E 012°32'9 9.0
2014-Oct-28 05:33N 54°35' E 012°19'9 8.9
2014-Oct-28 04:33N 54°27' E 012°13'8 8.5
2014-Oct-28 03:33N 54°24' E 011°59'10 9.5
2014-Oct-28 02:33N 54°26' E 011°43'11 9.5
2014-Oct-28 01:26N 54°31' E 011°27'8 8.9
2014-Oct-28 00:32N 54°34' E 011°14'9 8.9
2014-Oct-27 23:33N 54°35' E 010°59'9 9.5
2014-Oct-27 22:33N 54°34' E 010°43'9 9.1
2014-Oct-27 21:33N 54°32' E 010°28'9 8.9
2014-Oct-27 20:33N 54°27' E 010°15'6 6.4
2014-Oct-27 19:33N 54°22' E 010°08'1 0.9
2014-Oct-27 18:33N 54°22' E 010°07'7 7.0
2014-Oct-27 17:33N 54°21' E 009°55'7 6.8
2014-Oct-27 16:33N 54°20' E 009°44'7 7.5
2014-Oct-27 15:33N 54°14' E 009°36'8 8.5
2014-Oct-27 14:33N 54°10' E 009°24'8 8.1
2014-Oct-27 13:33N 54°02' E 009°18'8 7.6
2014-Oct-27 12:33N 53°55' E 009°12'3 2.8
2014-Oct-27 11:33N 53°54' E 009°09'3 3.0
2014-Oct-27 10:33N 53°53' E 009°04'8 8.1
2014-Oct-27 09:33N 53°50' E 008°51'6 6.4
2014-Oct-27 08:33N 53°54' E 008°42'6 6.3
2014-Oct-27 07:33N 53°58' E 008°33'8 7.6
2014-Oct-27 06:33N 53°59' E 008°21'8 8.3
2014-Oct-27 05:33N 53°59' E 008°07'8 8.1
2014-Oct-27 04:33N 53°57' E 007°53'16 8.1
2014-Oct-27 02:33N 53°54' E 007°26'9 8.6
2014-Oct-27 01:31N 53°51' E 007°12'19 9.3
2014-Oct-26 23:28N 53°47' E 006°40'1010.0
2014-Oct-26 22:26N 53°44' E 006°23'910.1
2014-Oct-26 21:33N 53°42' E 006°09'1010.3
2014-Oct-26 20:33N 53°38' E 005°52'1010.3
2014-Oct-26 19:33N 53°35' E 005°36'1010.5
2014-Oct-26 18:33N 53°32' E 005°19'1110.5
2014-Oct-26 17:33N 53°28' E 005°02'1010.1
2014-Oct-26 16:33N 53°24' E 004°47'19 8.9
2014-Oct-26 14:23N 53°08' E 004°29'17 8.3
2014-Oct-26 12:20N 52°53' E 004°17'23 8.0
2014-Oct-26 09:26N 52°35' E 003°52'39 9.0
2014-Oct-26 05:08N 52°01' E 003°23'610.7
2014-Oct-26 04:33N 51°55' E 003°20'1110.7
2014-Oct-26 03:33N 51°45' E 003°14'9 9.0
2014-Oct-26 02:33N 51°37' E 003°22'10 9.5
2014-Oct-26 01:33N 51°29' E 003°30'6 5.8
2014-Oct-26 00:33N 51°26' E 003°38'7 6.6
2014-Oct-25 23:33N 51°22' E 003°46'7 7.0
2014-Oct-25 22:34N 51°23' E 003°57'4 4.5
2014-Oct-25 21:34N 51°23' E 004°04'8 8.3
2014-Oct-25 20:33N 51°20' E 004°16'4 4.0
2014-Oct-25 19:34N 51°17' E 004°20'3 2.8
2014-Oct-25 18:33N 51°16' E 004°24'0 0.2
2014-Oct-25 17:31N 51°16' E 004°24'0 0.0
2014-Oct-25 16:31N 51°16' E 004°24'0 0.0
2014-Oct-25 15:31N 51°16' E 004°24'0 0.0
2014-Oct-25 14:31N 51°16' E 004°24'0 0.0
2014-Oct-25 13:31N 51°16' E 004°24'0 0.0
2014-Oct-25 12:31N 51°16' E 004°24'0 0.0
2014-Oct-25 11:34N 51°16' E 004°24'0 0.0
2014-Oct-25 10:33N 51°16' E 004°24'0 0.0
2014-Oct-25 09:33N 51°16' E 004°24'0 0.0
2014-Oct-25 08:33N 51°16' E 004°24'0 0.0
2014-Oct-25 07:33N 51°16' E 004°24'0 0.0
2014-Oct-25 06:33N 51°16' E 004°24'0 0.0
2014-Oct-25 05:33N 51°16' E 004°24'0 0.0
2014-Oct-25 04:33N 51°16' E 004°24'0 0.0
2014-Oct-25 03:33N 51°16' E 004°24'0 0.1
2014-Oct-25 02:32N 51°16' E 004°24'0 0.0
2014-Oct-25 01:32N 51°16' E 004°24'0 0.0
2014-Oct-25 00:32N 51°16' E 004°24'0 0.0
2014-Oct-24 23:32N 51°16' E 004°24'0 0.0
2014-Oct-24 22:32N 51°16' E 004°24'0 0.0
2014-Oct-24 21:32N 51°16' E 004°24'0 0.0
2014-Oct-24 20:32N 51°16' E 004°24'0 0.0
2014-Oct-24 19:32N 51°16' E 004°24'0 0.0
2014-Oct-24 18:32N 51°16' E 004°24'0 0.0
2014-Oct-24 17:32N 51°16' E 004°24'0 0.0
2014-Oct-24 16:32N 51°16' E 004°24'0 0.0
2014-Oct-24 15:32N 51°16' E 004°24'0 0.0
2014-Oct-24 14:32N 51°16' E 004°24'0 0.0
2014-Oct-24 13:32N 51°16' E 004°24'0 0.0
2014-Oct-24 12:32N 51°16' E 004°24'0 0.0
2014-Oct-24 11:32N 51°16' E 004°24'0 0.0
2014-Oct-24 10:32N 51°16' E 004°24'0 0.0
2014-Oct-24 09:31N 51°16' E 004°24'0 0.0
2014-Oct-24 08:33N 51°16' E 004°24'1 0.7
2014-Oct-24 07:33N 51°15' E 004°24'0 0.0
2014-Oct-24 06:33N 51°15' E 004°24'0 0.0
2014-Oct-24 05:33N 51°15' E 004°24'0 0.0
2014-Oct-24 04:33N 51°15' E 004°24'0 0.0
2014-Oct-24 03:33N 51°15' E 004°24'0 0.0
2014-Oct-24 02:33N 51°15' E 004°24'0 0.0
2014-Oct-24 01:33N 51°15' E 004°24'0 0.0
2014-Oct-24 00:33N 51°15' E 004°24'0 0.0
2014-Oct-23 23:32N 51°15' E 004°24'0 0.0
2014-Oct-23 22:32N 51°15' E 004°24'0 0.0
2014-Oct-23 21:32N 51°15' E 004°24'0 0.0
2014-Oct-23 20:32N 51°15' E 004°24'0 0.0
2014-Oct-23 19:32N 51°15' E 004°24'0 0.0
2014-Oct-23 18:32N 51°15' E 004°24'0 0.0
2014-Oct-23 17:32N 51°15' E 004°24'0 0.0
2014-Oct-23 16:32N 51°15' E 004°24'0 0.0
2014-Oct-23 15:32N 51°15' E 004°24'0 0.0
2014-Oct-23 14:32N 51°15' E 004°24'0 0.0
2014-Oct-23 13:32N 51°15' E 004°24'0 0.0
2014-Oct-23 12:32N 51°15' E 004°24'0 0.0
2014-Oct-23 11:32N 51°15' E 004°24'0 0.0
2014-Oct-23 10:32N 51°15' E 004°24'0 0.0
2014-Oct-23 09:32N 51°15' E 004°24'0 0.0
2014-Oct-23 08:32N 51°15' E 004°24'0 0.0
2014-Oct-23 07:32N 51°15' E 004°24'0 0.0
2014-Oct-23 06:32N 51°15' E 004°24'0 0.0
2014-Oct-23 05:32N 51°15' E 004°24'0 0.0
2014-Oct-23 04:32N 51°15' E 004°24'0 0.0
2014-Oct-23 03:32N 51°15' E 004°24'0 0.0
2014-Oct-23 02:32N 51°15' E 004°24'0 0.0
2014-Oct-23 01:32N 51°15' E 004°24'0 0.0
2014-Oct-23 00:32N 51°15' E 004°24'0 0.0
2014-Oct-22 23:32N 51°15' E 004°24'0 0.0
2014-Oct-22 22:32N 51°15' E 004°24'0 0.0
2014-Oct-22 21:32N 51°15' E 004°24'0 0.0
2014-Oct-22 20:32N 51°15' E 004°24'0 0.0
2014-Oct-22 19:32N 51°15' E 004°24'0 0.0
2014-Oct-22 18:32N 51°15' E 004°24'2 2.5
2014-Oct-22 17:34N 51°16' E 004°21'5 5.4
2014-Oct-22 16:34N 51°21' E 004°17'3 2.6
2014-Oct-22 15:33N 51°22' E 004°13'3 3.5
2014-Oct-22 14:33N 51°22' E 004°08'7 6.7
2014-Oct-22 13:33N 51°25' E 003°58'9 8.7
2014-Oct-22 12:33N 51°22' E 003°45'9 9.1
2014-Oct-22 11:33N 51°27' E 003°33'9 9.2
2014-Oct-22 10:33N 51°34' E 003°24'11 9.6
2014-Oct-22 09:22N 51°44' E 003°14'8 9.0
2014-Oct-22 08:29N 51°49' E 003°05'  
Track history (hours):
 
Tides and Currents Weather Stations Pressure Air Temp Water Temp Dewpoint Dewpoint Depression Visibility Wind Speed Wind Dir Waves Ship Positions

Vingaren

Last reported at 2014-Nov-01 04:30 UTC. Time now 2014-Nov-01 11:48 UTC.
Position N 55°36' E 015°22'.

Length 89 m; draft 6.4 m.

Type: Cargo ship. MMSI: 231844000.

Date/timePositionNaut miles runAvg speedWind from/ knotsBaromVisibWave heightAir tempDewpointWater temp
2014-Nov-01 04:30N 55°36' E 015°22'7 7.7
2014-Nov-01 03:33N 55°33' E 015°11'8 7.5
2014-Nov-01 02:31N 55°29' E 014°59'7 7.3
2014-Nov-01 01:33N 55°26' E 014°48'7 7.2
2014-Nov-01 00:33N 55°21' E 014°38'8 7.7
2014-Oct-31 23:33N 55°15' E 014°30'6 6.2
2014-Oct-31 22:33N 55°10' E 014°34'6 5.4
2014-Oct-31 21:31N 55°06' E 014°41'0 0.0
2014-Oct-31 20:31N 55°06' E 014°41'0 0.0
2014-Oct-31 19:31N 55°06' E 014°41'0 0.0
2014-Oct-31 18:31N 55°06' E 014°41'0 0.0
2014-Oct-31 17:31N 55°06' E 014°41'0 0.0
2014-Oct-31 16:31N 55°06' E 014°41'0 0.0
2014-Oct-31 15:31N 55°06' E 014°41'0 0.0
2014-Oct-31 14:31N 55°06' E 014°41'0 0.0
2014-Oct-31 13:31N 55°06' E 014°41'0 0.0
2014-Oct-31 12:31N 55°06' E 014°41'0 0.0
2014-Oct-31 11:31N 55°06' E 014°41'3 3.1
2014-Oct-31 10:33N 55°04' E 014°37'9 9.2
2014-Oct-31 09:34N 54°58' E 014°50'1010.2
2014-Oct-31 08:33N 54°57' E 015°07'1110.3
2014-Oct-31 07:32N 54°55' E 015°26'9310.2
2014-Oct-30 22:27N 54°56' E 018°07'9 9.9
2014-Oct-30 21:34N 54°54' E 018°22'10 9.9
2014-Oct-30 20:33N 54°51' E 018°38'10 9.9
2014-Oct-30 19:34N 54°48' E 018°54'8 8.2
2014-Oct-30 18:33N 54°40' E 018°57'1010.5
2014-Oct-30 17:34N 54°31' E 018°47'8 7.9
2014-Oct-30 16:34N 54°24' E 018°40'1 1.1
2014-Oct-30 15:32N 54°23' E 018°40'0 0.0
2014-Oct-30 14:32N 54°23' E 018°40'0 0.0
2014-Oct-30 13:32N 54°23' E 018°40'0 0.0
2014-Oct-30 12:32N 54°23' E 018°40'0 0.0
2014-Oct-30 11:32N 54°23' E 018°40'0 0.0
2014-Oct-30 10:32N 54°23' E 018°40'0 0.0
2014-Oct-30 09:32N 54°23' E 018°40'0 0.0
2014-Oct-30 08:31N 54°23' E 018°40'0 0.0
2014-Oct-30 07:31N 54°23' E 018°40'0 0.0
2014-Oct-30 06:31N 54°23' E 018°40'0 0.0
2014-Oct-30 05:31N 54°23' E 018°40'0 0.0
2014-Oct-30 04:31N 54°23' E 018°40'0 0.0
2014-Oct-30 03:31N 54°23' E 018°40'0 0.0
2014-Oct-30 02:31N 54°23' E 018°40'0 0.0
2014-Oct-30 01:31N 54°23' E 018°40'0 0.0
2014-Oct-30 00:31N 54°23' E 018°40'0 0.0
2014-Oct-29 23:31N 54°23' E 018°40'0 0.0
2014-Oct-29 22:31N 54°23' E 018°40'0 0.0
2014-Oct-29 21:31N 54°23' E 018°40'0 0.0
2014-Oct-29 20:31N 54°23' E 018°40'0 0.0
2014-Oct-29 19:31N 54°23' E 018°40'0 0.0
2014-Oct-29 18:31N 54°23' E 018°40'0 0.0
2014-Oct-29 17:31N 54°23' E 018°40'0 0.0
2014-Oct-29 16:28N 54°23' E 018°40'0 0.0
2014-Oct-29 15:31N 54°23' E 018°40'0 0.0
2014-Oct-29 14:31N 54°23' E 018°40'0 0.0
2014-Oct-29 13:31N 54°23' E 018°40'0 0.0
2014-Oct-29 12:31N 54°23' E 018°40'2 1.7
2014-Oct-29 11:33N 54°25' E 018°40'7 7.1
2014-Oct-29 10:33N 54°31' E 018°46'9 8.8
2014-Oct-29 09:33N 54°38' E 018°55'8 8.2
2014-Oct-29 08:33N 54°46' E 018°59'9 8.7
2014-Oct-29 07:33N 54°51' E 018°47'9 8.8
2014-Oct-29 06:33N 54°56' E 018°35'9 8.7
2014-Oct-29 05:33N 54°57' E 018°20'9 8.6
2014-Oct-29 04:33N 54°56' E 018°05'9 8.6
2014-Oct-29 03:33N 54°56' E 017°50'10 8.7
2014-Oct-29 02:27N 54°54' E 017°34'8 8.7
2014-Oct-29 01:28N 54°53' E 017°19'8 8.6
2014-Oct-29 00:33N 54°51' E 017°06'10 8.5
2014-Oct-28 23:24N 54°49' E 016°49'16 8.8
2014-Oct-28 21:33N 54°46' E 016°22'69 9.2
2014-Oct-28 14:03N 54°36' E 014°24'5 9.0
2014-Oct-28 13:33N 54°37' E 014°16'9 9.2
2014-Oct-28 12:33N 54°40' E 014°01'9 9.0
2014-Oct-28 11:31N 54°43' E 013°46'9 8.8
2014-Oct-28 10:33N 54°45' E 013°32'9 9.0
2014-Oct-28 09:33N 54°45' E 013°16'9 9.1
2014-Oct-28 08:33N 54°45' E 013°01'9 9.0
2014-Oct-28 07:33N 54°45' E 012°45'9 8.9
2014-Oct-28 06:32N 54°40' E 012°32'9 9.0
2014-Oct-28 05:33N 54°35' E 012°19'9 8.9
2014-Oct-28 04:33N 54°27' E 012°13'8 8.5
2014-Oct-28 03:33N 54°24' E 011°59'10 9.5
2014-Oct-28 02:33N 54°26' E 011°43'11 9.5
2014-Oct-28 01:26N 54°31' E 011°27'8 8.9
2014-Oct-28 00:32N 54°34' E 011°14'9 8.9
2014-Oct-27 23:33N 54°35' E 010°59'9 9.5
2014-Oct-27 22:33N 54°34' E 010°43'9 9.1
2014-Oct-27 21:33N 54°32' E 010°28'9 8.9
2014-Oct-27 20:33N 54°27' E 010°15'6 6.4
2014-Oct-27 19:33N 54°22' E 010°08'1 0.9
2014-Oct-27 18:33N 54°22' E 010°07'7 7.0
2014-Oct-27 17:33N 54°21' E 009°55'7 6.8
2014-Oct-27 16:33N 54°20' E 009°44'7 7.5
2014-Oct-27 15:33N 54°14' E 009°36'8 8.5
2014-Oct-27 14:33N 54°10' E 009°24'8 8.1
2014-Oct-27 13:33N 54°02' E 009°18'8 7.6
2014-Oct-27 12:33N 53°55' E 009°12'3 2.8
2014-Oct-27 11:33N 53°54' E 009°09'3 3.0
2014-Oct-27 10:33N 53°53' E 009°04'8 8.1
2014-Oct-27 09:33N 53°50' E 008°51'6 6.4
2014-Oct-27 08:33N 53°54' E 008°42'6 6.3
2014-Oct-27 07:33N 53°58' E 008°33'8 7.6
2014-Oct-27 06:33N 53°59' E 008°21'8 8.3
2014-Oct-27 05:33N 53°59' E 008°07'8 8.1
2014-Oct-27 04:33N 53°57' E 007°53'16 8.1
2014-Oct-27 02:33N 53°54' E 007°26'9 8.6
2014-Oct-27 01:31N 53°51' E 007°12'19 9.3
2014-Oct-26 23:28N 53°47' E 006°40'1010.0
2014-Oct-26 22:26N 53°44' E 006°23'910.1
2014-Oct-26 21:33N 53°42' E 006°09'1010.3
2014-Oct-26 20:33N 53°38' E 005°52'1010.3
2014-Oct-26 19:33N 53°35' E 005°36'1010.5
2014-Oct-26 18:33N 53°32' E 005°19'1110.5
2014-Oct-26 17:33N 53°28' E 005°02'1010.1
2014-Oct-26 16:33N 53°24' E 004°47'19 8.9
2014-Oct-26 14:23N 53°08' E 004°29'17 8.3
2014-Oct-26 12:20N 52°53' E 004°17'23 8.0
2014-Oct-26 09:26N 52°35' E 003°52'39 9.0
2014-Oct-26 05:08N 52°01' E 003°23'610.7
2014-Oct-26 04:33N 51°55' E 003°20'1110.7
2014-Oct-26 03:33N 51°45' E 003°14'9 9.0
2014-Oct-26 02:33N 51°37' E 003°22'10 9.5
2014-Oct-26 01:33N 51°29' E 003°30'6 5.8
2014-Oct-26 00:33N 51°26' E 003°38'7 6.6
2014-Oct-25 23:33N 51°22' E 003°46'7 7.0
2014-Oct-25 22:34N 51°23' E 003°57'4 4.5
2014-Oct-25 21:34N 51°23' E 004°04'8 8.3
2014-Oct-25 20:33N 51°20' E 004°16'4 4.0
2014-Oct-25 19:34N 51°17' E 004°20'3 2.8
2014-Oct-25 18:33N 51°16' E 004°24'0 0.2
2014-Oct-25 17:31N 51°16' E 004°24'0 0.0
2014-Oct-25 16:31N 51°16' E 004°24'0 0.0
2014-Oct-25 15:31N 51°16' E 004°24'0 0.0
2014-Oct-25 14:31N 51°16' E 004°24'0 0.0
2014-Oct-25 13:31N 51°16' E 004°24'0 0.0
2014-Oct-25 12:31N 51°16' E 004°24'0 0.0
2014-Oct-25 11:34N 51°16' E 004°24'0 0.0
2014-Oct-25 10:33N 51°16' E 004°24'0 0.0
2014-Oct-25 09:33N 51°16' E 004°24'0 0.0
2014-Oct-25 08:33N 51°16' E 004°24'0 0.0
2014-Oct-25 07:33N 51°16' E 004°24'0 0.0
2014-Oct-25 06:33N 51°16' E 004°24'0 0.0
2014-Oct-25 05:33N 51°16' E 004°24'0 0.0
2014-Oct-25 04:33N 51°16' E 004°24'0 0.0
2014-Oct-25 03:33N 51°16' E 004°24'0 0.1
2014-Oct-25 02:32N 51°16' E 004°24'0 0.0
2014-Oct-25 01:32N 51°16' E 004°24'0 0.0
2014-Oct-25 00:32N 51°16' E 004°24'0 0.0
2014-Oct-24 23:32N 51°16' E 004°24'0 0.0
2014-Oct-24 22:32N 51°16' E 004°24'0 0.0
2014-Oct-24 21:32N 51°16' E 004°24'0 0.0
2014-Oct-24 20:32N 51°16' E 004°24'0 0.0
2014-Oct-24 19:32N 51°16' E 004°24'0 0.0
2014-Oct-24 18:32N 51°16' E 004°24'0 0.0
2014-Oct-24 17:32N 51°16' E 004°24'0 0.0
2014-Oct-24 16:32N 51°16' E 004°24'0 0.0
2014-Oct-24 15:32N 51°16' E 004°24'0 0.0
2014-Oct-24 14:32N 51°16' E 004°24'0 0.0
2014-Oct-24 13:32N 51°16' E 004°24'0 0.0
2014-Oct-24 12:32N 51°16' E 004°24'0 0.0
2014-Oct-24 11:32N 51°16' E 004°24'0 0.0
2014-Oct-24 10:32N 51°16' E 004°24'0 0.0
2014-Oct-24 09:31N 51°16' E 004°24'0 0.0
2014-Oct-24 08:33N 51°16' E 004°24'1 0.7
2014-Oct-24 07:33N 51°15' E 004°24'0 0.0
2014-Oct-24 06:33N 51°15' E 004°24'0 0.0
2014-Oct-24 05:33N 51°15' E 004°24'0 0.0
2014-Oct-24 04:33N 51°15' E 004°24'0 0.0
2014-Oct-24 03:33N 51°15' E 004°24'0 0.0
2014-Oct-24 02:33N 51°15' E 004°24'0 0.0
2014-Oct-24 01:33N 51°15' E 004°24'0 0.0
2014-Oct-24 00:33N 51°15' E 004°24'0 0.0
2014-Oct-23 23:32N 51°15' E 004°24'0 0.0
2014-Oct-23 22:32N 51°15' E 004°24'0 0.0
2014-Oct-23 21:32N 51°15' E 004°24'0 0.0
2014-Oct-23 20:32N 51°15' E 004°24'0 0.0
2014-Oct-23 19:32N 51°15' E 004°24'0 0.0
2014-Oct-23 18:32N 51°15' E 004°24'0 0.0
2014-Oct-23 17:32N 51°15' E 004°24'0 0.0
2014-Oct-23 16:32N 51°15' E 004°24'0 0.0
2014-Oct-23 15:32N 51°15' E 004°24'0 0.0
2014-Oct-23 14:32N 51°15' E 004°24'0 0.0
2014-Oct-23 13:32N 51°15' E 004°24'0 0.0
2014-Oct-23 12:32N 51°15' E 004°24'0 0.0
2014-Oct-23 11:32N 51°15' E 004°24'0 0.0
2014-Oct-23 10:32N 51°15' E 004°24'0 0.0
2014-Oct-23 09:32N 51°15' E 004°24'0 0.0
2014-Oct-23 08:32N 51°15' E 004°24'0 0.0
2014-Oct-23 07:32N 51°15' E 004°24'0 0.0
2014-Oct-23 06:32N 51°15' E 004°24'0 0.0
2014-Oct-23 05:32N 51°15' E 004°24'0 0.0
2014-Oct-23 04:32N 51°15' E 004°24'0 0.0
2014-Oct-23 03:32N 51°15' E 004°24'0 0.0
2014-Oct-23 02:32N 51°15' E 004°24'0 0.0
2014-Oct-23 01:32N 51°15' E 004°24'0 0.0
2014-Oct-23 00:32N 51°15' E 004°24'0 0.0
2014-Oct-22 23:32N 51°15' E 004°24'0 0.0
2014-Oct-22 22:32N 51°15' E 004°24'0 0.0
2014-Oct-22 21:32N 51°15' E 004°24'0 0.0
2014-Oct-22 20:32N 51°15' E 004°24'0 0.0
2014-Oct-22 19:32N 51°15' E 004°24'0 0.0
2014-Oct-22 18:32N 51°15' E 004°24'2 2.5
2014-Oct-22 17:34N 51°16' E 004°21'5 5.4
2014-Oct-22 16:34N 51°21' E 004°17'3 2.6
2014-Oct-22 15:33N 51°22' E 004°13'3 3.5
2014-Oct-22 14:33N 51°22' E 004°08'7 6.7
2014-Oct-22 13:33N 51°25' E 003°58'9 8.7
2014-Oct-22 12:33N 51°22' E 003°45'9 9.1
2014-Oct-22 11:33N 51°27' E 003°33'9 9.2
2014-Oct-22 10:33N 51°34' E 003°24'11 9.6
2014-Oct-22 09:22N 51°44' E 003°14'8 9.0
2014-Oct-22 08:29N 51°49' E 003°05'  

Dump ship's entire track history